Logo AVAMET
Benvolgut visitant, si us plau, ingressa Recuperar contrasenya
AVAMET paisatges

Torreblanca AEMET

Dades diàries. Acumulats / Últims 30 dies disponibles

Data Temperatura (°C) Humitat rel. (%) Pressió rel. (hPa) Vent (km/h) Precipitació
Mínima Mitjana Màxima Amplitud
tèrmica
Mínima Mitjana Màxima Mínima Mitjana Màxima Predom. Mitjana Ràfega
màxima
Total
(mm)
Índex-n
Mínima Mitjana Màxima Mínima Mitjana Màxima n
0 a 1
P0 max
mm 5'
Dades mensuals acumulades fins l'últim dia disponible
06/2020 15,9 17,3 17,9 20,7 20,7 24,1 25,4 9,5   53,0 14,0
Dades anuals acumulades fins l'últim dia disponible
2020 4,5 11,3 18,9 15,2 10,0 19,1 29,1 24,6   80,0 533,0
Últims 30 dies disponibles
04-06-2020 15,9     18,3     20,7 4,8 53,0 14,0
03-06-2020 17,8     21,6     25,4 7,6 38,0 0,0
02-06-2020 17,7     21,4     25,1 7,4 24,0 0,0
01-06-2020 17,9     21,6     25,3 7,4 26,0 0,0
31-05-2020 16,7     20,6     24,4 7,7 29,0 0,0
30-05-2020 16,5     20,4     24,2 7,7 28,0 0,0
29-05-2020 15,3     20,1     24,9 9,6 35,0 0,0
28-05-2020 16,2     20,3     24,3 8,1 24,0 0,0
27-05-2020 17,6     22,4     27,2 9,6 41,0 0,0
26-05-2020 16,2     21,5     26,7 10,5 25,0 0,0
25-05-2020 16,6     19,7     22,8 6,2 22,0 0,4
24-05-2020 18,9     21,1     23,3 4,4 26,0 0,0
23-05-2020 18,1     22,4     26,7 8,6 21,0 0,2
22-05-2020 17,8     21,7     25,6 7,8 20,0 0,0
21-05-2020 17,2     21,7     26,1 8,9 20,0 0,0
20-05-2020 17,9     21,9     25,9 8,0 21,0 0,0
19-05-2020 16,7     20,8     24,9 8,2 21,0 0,0
18-05-2020 14,8     18,8     22,9 8,1 24,0 0,0
17-05-2020 13,5     17,9     22,3 8,8 24,0 0,6
16-05-2020 15,8     19,3     22,7 6,9 33,0 0,2
15-05-2020 12,6     16,7     20,8 8,2 26,0 0,0
14-05-2020 14,7     15,7     16,7 2,0 25,0 8,6
13-05-2020 15,0     18,8     22,6 7,6 27,0 2,0
12-05-2020 16,0     18,9     21,8 5,8 42,0 0,6
11-05-2020 12,4     20,1     27,7 15,3 37,0 0,0
10-05-2020 14,6     17,7     20,8 6,2 26,0 67,6
09-05-2020 16,9     19,8     22,7 5,8 22,0 0,0
08-05-2020 16,5     19,8     23,1 6,6 57,0 0,0
07-05-2020 16,7     21,1     25,5 8,8 30,0 0,0
06-05-2020 16,3     20,6     25,0 8,7 27,0 0,0
Últims 13 mesos disponibles
05/2020 12,4 16,2 18,9 20,2 16,7 24,3 29,1 16,7 57,0 80,2
04/2020 8,4 12,1 15,0 15,6 14,9 19,1 26,6 18,2 59,0 124,0
03/2020 5,9 9,8 13,8 13,7 11,3 17,6 26,3 20,4 80,0 251,0
02/2020 6,8 9,9 13,9 14,3 14,5 18,7 24,9 18,1 61,0 0,0
01/2020 4,5 7,8 13,0 11,5 10,0 15,2 21,7 17,2 75,0 157,8
12/2019 7,1 10,3 15,9 13,9 12,3 17,6 25,8 18,7 75,0 97,6
11/2019 5,0 10,9 17,5 15,2 15,2 19,5 26,6 21,6 75,0 4,8
10/2019 10,9 16,3 20,0 20,1 16,4 23,9 28,5 17,6 63,0 32,2
09/2019 14,7 19,7 22,7 23,3 23,0 27,0 30,5 15,8 60,0 43,2
08/2019 19,1 21,9 24,7 25,8 26,6 29,6 32,2 13,1 57,0 48,0
07/2019 18,0 22,1 24,2 26,1 27,3 30,1 32,6 14,6 52,0 23,0
06/2019 12,3 17,7 22,8 21,9 20,9 26,1 35,8 23,5 52,0 0,0
05/2019 9,2 13,7 16,5 17,7 17,7 21,7 27,4 18,2 74,0 13,6
Tots els anys disponibles
2019 2,4 14,0 24,7 18,0 11,8 22,0 35,8 33,4 100,0 321,8
2018 1,6 14,2 27,3 18,1 7,1 22,0 35,1 33,5 82,0 803,6
2017 1,6 13,9 25,0 18,2 9,0 22,4 34,9 33,3 91,0 303,2
2016 2,7 14,2 23,9 18,2 11,2 22,2 32,8 30,1 78,0 429,4
2015 2,0 14,1 25,1 18,2 8,8 22,2 34,1 32,1 91,0 423,4
2014 3,5 14,2 24,5 18,4 12,3 22,5 34,2 30,7 95,0 298,8
2013 3,0 13,3 17,6 17,5 21,0 21,8 31,4 28,4 106,0 294,8
2012 1,0 14,4 24,8 18,7 9,7 23,0 32,4 31,4 92,0 289,8
Temperatura (°C)
Humitat relativa (%)
Velocitat del vent i ràfega màxima (km/h)
Direcció del vent (°)
Pressió (hPa)
Precipitació (mm)
Nota sobre les dades: s'avisa a l'usuari de la provisionalitat i no oficialitat d'aquestes dades
Logo AVAMET blanc
Web allotjada a Sollutia
Llicència de Creative CommonsLa web d'AVAMET i els seus continguts estan subjectes a una llicència de
Reconeixement - No Comercial - Compartir igual
Últimes estacions: Torrent - Avda al Vedat (Soci), Gavarda (Soci), Biar - IES Biar (Soci), Xodos - la Vega (Soci), la Vall d'Alba - Centre (Ajuntament soci), Chera (Ajuntament soci) - - -